sensor_id;sensor_type;location;lat;lon;timestamp;P1;durP1;ratioP1;P2;durP2;ratioP2
13941;SDS011;7043;51.630;7.254;2023-04-10T00:01:49;27.60;;;23.50;;
13941;SDS011;7043;51.630;7.254;2023-04-10T00:04:15;26.03;;;22.93;;
13941;SDS011;7043;51.630;7.254;2023-04-10T00:06:41;29.50;;;23.63;;
13941;SDS011;7043;51.630;7.254;2023-04-10T00:09:08;27.87;;;23.40;;
13941;SDS011;7043;51.630;7.254;2023-04-10T00:11:34;27.90;;;24.53;;
13941;SDS011;7043;51.630;7.254;2023-04-10T00:14:00;26.77;;;23.70;;
13941;SDS011;7043;51.630;7.254;2023-04-10T00:16:26;28.10;;;23.73;;
13941;SDS011;7043;51.630;7.254;2023-04-10T00:18:52;26.93;;;23.97;;
13941;SDS011;7043;51.630;7.254;2023-04-10T00:21:18;28.60;;;24.90;;
13941;SDS011;7043;51.630;7.254;2023-04-10T00:23:44;28.53;;;24.73;;
13941;SDS011;7043;51.630;7.254;2023-04-10T00:26:10;29.20;;;26.03;;
13941;SDS011;7043;51.630;7.254;2023-04-10T00:28:36;31.70;;;27.53;;
13941;SDS011;7043;51.630;7.254;2023-04-10T00:31:05;31.37;;;27.70;;
13941;SDS011;7043;51.630;7.254;2023-04-10T00:33:31;35.33;;;28.87;;
13941;SDS011;7043;51.630;7.254;2023-04-10T00:35:57;36.07;;;30.47;;
13941;SDS011;7043;51.630;7.254;2023-04-10T00:38:23;35.40;;;29.60;;
13941;SDS011;7043;51.630;7.254;2023-04-10T00:40:49;38.10;;;31.80;;
13941;SDS011;7043;51.630;7.254;2023-04-10T00:43:16;38.47;;;32.60;;
13941;SDS011;7043;51.630;7.254;2023-04-10T00:45:44;38.73;;;33.83;;
13941;SDS011;7043;51.630;7.254;2023-04-10T00:48:10;43.33;;;34.53;;
13941;SDS011;7043;51.630;7.254;2023-04-10T00:50:37;42.90;;;35.17;;
13941;SDS011;7043;51.630;7.254;2023-04-10T00:53:03;43.97;;;36.17;;
13941;SDS011;7043;51.630;7.254;2023-04-10T00:55:29;43.97;;;35.97;;
13941;SDS011;7043;51.630;7.254;2023-04-10T00:57:55;43.13;;;36.17;;
13941;SDS011;7043;51.630;7.254;2023-04-10T01:00:21;43.97;;;36.60;;
13941;SDS011;7043;51.630;7.254;2023-04-10T01:02:47;44.23;;;36.10;;
13941;SDS011;7043;51.630;7.254;2023-04-10T01:05:14;43.60;;;37.03;;
13941;SDS011;7043;51.630;7.254;2023-04-10T01:07:44;45.20;;;37.60;;
13941;SDS011;7043;51.630;7.254;2023-04-10T01:10:17;46.03;;;38.07;;
13941;SDS011;7043;51.630;7.254;2023-04-10T01:15:20;45.10;;;38.10;;
13941;SDS011;7043;51.630;7.254;2023-04-10T01:20:15;45.13;;;37.90;;
13941;SDS011;7043;51.630;7.254;2023-04-10T01:27:44;46.07;;;37.93;;
13941;SDS011;7043;51.630;7.254;2023-04-10T01:30:13;45.87;;;37.60;;
13941;SDS011;7043;51.630;7.254;2023-04-10T01:32:42;48.83;;;38.83;;
13941;SDS011;7043;51.630;7.254;2023-04-10T01:35:08;47.13;;;39.37;;
13941;SDS011;7043;51.630;7.254;2023-04-10T01:37:36;47.53;;;38.93;;
13941;SDS011;7043;51.630;7.254;2023-04-10T01:40:03;48.10;;;38.13;;
13941;SDS011;7043;51.630;7.254;2023-04-10T01:42:33;47.30;;;39.77;;
13941;SDS011;7043;51.630;7.254;2023-04-10T01:44:59;47.93;;;38.67;;
13941;SDS011;7043;51.630;7.254;2023-04-10T01:47:26;46.87;;;38.63;;
13941;SDS011;7043;51.630;7.254;2023-04-10T01:49:52;44.83;;;37.27;;
13941;SDS011;7043;51.630;7.254;2023-04-10T01:52:19;47.43;;;39.90;;
13941;SDS011;7043;51.630;7.254;2023-04-10T01:54:46;46.83;;;38.97;;
13941;SDS011;7043;51.630;7.254;2023-04-10T01:57:13;48.33;;;40.53;;
13941;SDS011;7043;51.630;7.254;2023-04-10T01:59:39;46.23;;;38.97;;
13941;SDS011;7043;51.630;7.254;2023-04-10T02:02:06;48.57;;;40.03;;
13941;SDS011;7043;51.630;7.254;2023-04-10T02:04:32;49.33;;;40.13;;
13941;SDS011;7043;51.630;7.254;2023-04-10T02:07:01;46.83;;;38.53;;
13941;SDS011;7043;51.630;7.254;2023-04-10T02:09:36;48.50;;;39.87;;
13941;SDS011;7043;51.630;7.254;2023-04-10T02:12:07;47.13;;;38.33;;
13941;SDS011;7043;51.630;7.254;2023-04-10T02:14:35;48.13;;;40.00;;
13941;SDS011;7043;51.630;7.254;2023-04-10T02:17:01;48.90;;;39.83;;
13941;SDS011;7043;51.630;7.254;2023-04-10T02:19:28;47.60;;;41.13;;
13941;SDS011;7043;51.630;7.254;2023-04-10T02:21:55;51.40;;;41.27;;
13941;SDS011;7043;51.630;7.254;2023-04-10T02:24:22;46.87;;;39.07;;
13941;SDS011;7043;51.630;7.254;2023-04-10T02:26:49;49.13;;;40.23;;
13941;SDS011;7043;51.630;7.254;2023-04-10T02:29:16;47.40;;;38.93;;
13941;SDS011;7043;51.630;7.254;2023-04-10T02:31:42;50.57;;;42.10;;
13941;SDS011;7043;51.630;7.254;2023-04-10T02:34:09;47.70;;;40.73;;
13941;SDS011;7043;51.630;7.254;2023-04-10T02:36:36;51.07;;;42.07;;
13941;SDS011;7043;51.630;7.254;2023-04-10T02:39:02;49.97;;;41.27;;
13941;SDS011;7043;51.630;7.254;2023-04-10T02:41:28;47.53;;;41.50;;
13941;SDS011;7043;51.630;7.254;2023-04-10T02:43:55;48.63;;;39.53;;
13941;SDS011;7043;51.630;7.254;2023-04-10T02:46:20;48.87;;;40.47;;
13941;SDS011;7043;51.630;7.254;2023-04-10T02:48:46;48.67;;;40.23;;
13941;SDS011;7043;51.630;7.254;2023-04-10T02:51:12;48.27;;;40.20;;
13941;SDS011;7043;51.630;7.254;2023-04-10T02:53:38;50.07;;;41.03;;
13941;SDS011;7043;51.630;7.254;2023-04-10T02:56:05;49.67;;;41.57;;
13941;SDS011;7043;51.630;7.254;2023-04-10T02:58:32;50.10;;;40.93;;
13941;SDS011;7043;51.630;7.254;2023-04-10T03:00:58;47.90;;;40.47;;
13941;SDS011;7043;51.630;7.254;2023-04-10T03:03:24;49.63;;;40.93;;
13941;SDS011;7043;51.630;7.254;2023-04-10T03:05:50;46.67;;;39.43;;
13941;SDS011;7043;51.630;7.254;2023-04-10T03:08:16;49.30;;;41.97;;
13941;SDS011;7043;51.630;7.254;2023-04-10T03:10:45;47.73;;;40.20;;
13941;SDS011;7043;51.630;7.254;2023-04-10T03:13:15;50.57;;;42.40;;
13941;SDS011;7043;51.630;7.254;2023-04-10T03:15:41;49.43;;;41.10;;
13941;SDS011;7043;51.630;7.254;2023-04-10T03:18:07;51.93;;;42.67;;
13941;SDS011;7043;51.630;7.254;2023-04-10T03:20:36;51.23;;;42.33;;
13941;SDS011;7043;51.630;7.254;2023-04-10T03:23:03;51.17;;;41.60;;
13941;SDS011;7043;51.630;7.254;2023-04-10T03:25:29;49.60;;;40.10;;
13941;SDS011;7043;51.630;7.254;2023-04-10T03:27:56;52.40;;;43.07;;
13941;SDS011;7043;51.630;7.254;2023-04-10T03:30:22;53.27;;;43.40;;
13941;SDS011;7043;51.630;7.254;2023-04-10T03:32:48;53.10;;;43.20;;
13941;SDS011;7043;51.630;7.254;2023-04-10T03:35:14;53.13;;;44.07;;
13941;SDS011;7043;51.630;7.254;2023-04-10T03:37:40;54.27;;;42.73;;
13941;SDS011;7043;51.630;7.254;2023-04-10T03:40:06;52.17;;;43.83;;
13941;SDS011;7043;51.630;7.254;2023-04-10T03:42:33;53.03;;;42.83;;
13941;SDS011;7043;51.630;7.254;2023-04-10T03:44:59;50.37;;;41.47;;
13941;SDS011;7043;51.630;7.254;2023-04-10T03:47:28;50.40;;;41.57;;
13941;SDS011;7043;51.630;7.254;2023-04-10T03:49:54;51.83;;;41.03;;
13941;SDS011;7043;51.630;7.254;2023-04-10T03:52:20;51.17;;;40.37;;
13941;SDS011;7043;51.630;7.254;2023-04-10T03:54:46;50.97;;;40.97;;
13941;SDS011;7043;51.630;7.254;2023-04-10T03:57:12;51.13;;;40.43;;
13941;SDS011;7043;51.630;7.254;2023-04-10T03:59:38;51.07;;;40.43;;
13941;SDS011;7043;51.630;7.254;2023-04-10T04:02:05;53.00;;;42.90;;
13941;SDS011;7043;51.630;7.254;2023-04-10T04:04:31;50.00;;;40.87;;
13941;SDS011;7043;51.630;7.254;2023-04-10T04:06:57;52.47;;;43.30;;
13941;SDS011;7043;51.630;7.254;2023-04-10T04:09:23;50.00;;;40.77;;
13941;SDS011;7043;51.630;7.254;2023-04-10T04:11:49;48.83;;;40.90;;
13941;SDS011;7043;51.630;7.254;2023-04-10T04:14:15;46.37;;;39.40;;
13941;SDS011;7043;51.630;7.254;2023-04-10T04:16:41;49.43;;;39.47;;
13941;SDS011;7043;51.630;7.254;2023-04-10T04:19:07;46.63;;;38.20;;
13941;SDS011;7043;51.630;7.254;2023-04-10T04:21:33;44.23;;;35.87;;
13941;SDS011;7043;51.630;7.254;2023-04-10T04:23:59;46.60;;;39.60;;
13941;SDS011;7043;51.630;7.254;2023-04-10T04:26:25;47.67;;;38.97;;
13941;SDS011;7043;51.630;7.254;2023-04-10T04:28:51;47.97;;;39.67;;
13941;SDS011;7043;51.630;7.254;2023-04-10T04:31:17;47.53;;;39.07;;
13941;SDS011;7043;51.630;7.254;2023-04-10T04:33:43;46.33;;;39.00;;
13941;SDS011;7043;51.630;7.254;2023-04-10T04:36:09;44.73;;;37.47;;
13941;SDS011;7043;51.630;7.254;2023-04-10T04:38:35;43.17;;;36.60;;
13941;SDS011;7043;51.630;7.254;2023-04-10T04:41:01;42.60;;;35.17;;
13941;SDS011;7043;51.630;7.254;2023-04-10T04:43:27;43.10;;;34.37;;
13941;SDS011;7043;51.630;7.254;2023-04-10T04:45:53;37.33;;;30.93;;
13941;SDS011;7043;51.630;7.254;2023-04-10T04:48:19;35.20;;;29.80;;
13941;SDS011;7043;51.630;7.254;2023-04-10T04:50:45;37.70;;;30.37;;
13941;SDS011;7043;51.630;7.254;2023-04-10T04:53:12;31.93;;;28.17;;
13941;SDS011;7043;51.630;7.254;2023-04-10T04:55:38;32.53;;;26.83;;
13941;SDS011;7043;51.630;7.254;2023-04-10T04:58:04;31.33;;;26.43;;
13941;SDS011;7043;51.630;7.254;2023-04-10T05:00:30;32.70;;;27.17;;
13941;SDS011;7043;51.630;7.254;2023-04-10T05:02:56;35.87;;;28.60;;
13941;SDS011;7043;51.630;7.254;2023-04-10T05:05:22;32.23;;;26.43;;
13941;SDS011;7043;51.630;7.254;2023-04-10T05:07:48;33.33;;;27.63;;
13941;SDS011;7043;51.630;7.254;2023-04-10T05:10:14;32.97;;;28.17;;
13941;SDS011;7043;51.630;7.254;2023-04-10T05:12:40;35.17;;;28.83;;
13941;SDS011;7043;51.630;7.254;2023-04-10T05:15:07;36.17;;;29.67;;
13941;SDS011;7043;51.630;7.254;2023-04-10T05:17:33;36.23;;;29.87;;
13941;SDS011;7043;51.630;7.254;2023-04-10T05:19:59;36.07;;;30.70;;
13941;SDS011;7043;51.630;7.254;2023-04-10T05:22:25;38.73;;;30.63;;
13941;SDS011;7043;51.630;7.254;2023-04-10T05:24:52;39.17;;;30.20;;
13941;SDS011;7043;51.630;7.254;2023-04-10T05:27:19;37.57;;;30.43;;
13941;SDS011;7043;51.630;7.254;2023-04-10T05:29:45;38.10;;;31.30;;
13941;SDS011;7043;51.630;7.254;2023-04-10T05:32:12;34.23;;;30.27;;
13941;SDS011;7043;51.630;7.254;2023-04-10T05:34:38;39.00;;;31.13;;
13941;SDS011;7043;51.630;7.254;2023-04-10T05:37:04;36.30;;;30.47;;
13941;SDS011;7043;51.630;7.254;2023-04-10T05:39:30;33.63;;;28.40;;
13941;SDS011;7043;51.630;7.254;2023-04-10T05:41:56;37.17;;;31.00;;
13941;SDS011;7043;51.630;7.254;2023-04-10T05:44:22;36.57;;;30.47;;
13941;SDS011;7043;51.630;7.254;2023-04-10T05:46:48;33.33;;;28.50;;
13941;SDS011;7043;51.630;7.254;2023-04-10T05:49:14;32.73;;;28.17;;
13941;SDS011;7043;51.630;7.254;2023-04-10T05:51:40;33.60;;;28.53;;
13941;SDS011;7043;51.630;7.254;2023-04-10T05:54:06;32.47;;;28.50;;
13941;SDS011;7043;51.630;7.254;2023-04-10T05:56:32;32.83;;;28.97;;
13941;SDS011;7043;51.630;7.254;2023-04-10T05:58:58;32.97;;;28.07;;
13941;SDS011;7043;51.630;7.254;2023-04-10T06:01:24;35.33;;;29.50;;
13941;SDS011;7043;51.630;7.254;2023-04-10T06:03:50;34.83;;;30.17;;
13941;SDS011;7043;51.630;7.254;2023-04-10T06:06:16;35.87;;;29.83;;
13941;SDS011;7043;51.630;7.254;2023-04-10T06:08:43;36.87;;;29.90;;
13941;SDS011;7043;51.630;7.254;2023-04-10T06:11:09;35.43;;;29.40;;
13941;SDS011;7043;51.630;7.254;2023-04-10T06:13:35;33.13;;;28.20;;
13941;SDS011;7043;51.630;7.254;2023-04-10T06:16:01;33.23;;;28.57;;
13941;SDS011;7043;51.630;7.254;2023-04-10T06:18:27;33.10;;;28.97;;
13941;SDS011;7043;51.630;7.254;2023-04-10T06:20:53;35.27;;;29.67;;
13941;SDS011;7043;51.630;7.254;2023-04-10T06:23:22;33.43;;;29.77;;
13941;SDS011;7043;51.630;7.254;2023-04-10T06:25:48;36.10;;;29.83;;
13941;SDS011;7043;51.630;7.254;2023-04-10T06:28:13;35.17;;;28.97;;
13941;SDS011;7043;51.630;7.254;2023-04-10T06:30:39;33.93;;;28.67;;
13941;SDS011;7043;51.630;7.254;2023-04-10T06:33:05;34.03;;;28.57;;
13941;SDS011;7043;51.630;7.254;2023-04-10T06:35:31;31.37;;;27.23;;
13941;SDS011;7043;51.630;7.254;2023-04-10T06:37:57;31.07;;;27.77;;
13941;SDS011;7043;51.630;7.254;2023-04-10T06:40:23;31.83;;;28.43;;
13941;SDS011;7043;51.630;7.254;2023-04-10T06:42:49;33.37;;;28.47;;
13941;SDS011;7043;51.630;7.254;2023-04-10T06:45:15;32.13;;;27.57;;
13941;SDS011;7043;51.630;7.254;2023-04-10T06:47:41;35.47;;;27.60;;
13941;SDS011;7043;51.630;7.254;2023-04-10T06:50:07;30.50;;;26.10;;
13941;SDS011;7043;51.630;7.254;2023-04-10T06:52:33;28.27;;;25.13;;
13941;SDS011;7043;51.630;7.254;2023-04-10T06:54:59;28.43;;;25.03;;
13941;SDS011;7043;51.630;7.254;2023-04-10T06:57:26;31.27;;;24.57;;
13941;SDS011;7043;51.630;7.254;2023-04-10T06:59:52;27.67;;;24.13;;
13941;SDS011;7043;51.630;7.254;2023-04-10T07:02:18;27.53;;;23.20;;
13941;SDS011;7043;51.630;7.254;2023-04-10T07:04:44;23.67;;;21.07;;
13941;SDS011;7043;51.630;7.254;2023-04-10T07:07:10;26.43;;;22.83;;
13941;SDS011;7043;51.630;7.254;2023-04-10T07:09:37;22.10;;;19.80;;
13941;SDS011;7043;51.630;7.254;2023-04-10T07:12:03;27.50;;;24.53;;
13941;SDS011;7043;51.630;7.254;2023-04-10T07:14:31;34.03;;;28.43;;
13941;SDS011;7043;51.630;7.254;2023-04-10T07:16:57;31.27;;;26.67;;
13941;SDS011;7043;51.630;7.254;2023-04-10T07:19:23;26.73;;;23.47;;
13941;SDS011;7043;51.630;7.254;2023-04-10T07:21:49;24.53;;;21.93;;
13941;SDS011;7043;51.630;7.254;2023-04-10T07:24:15;21.00;;;18.83;;
13941;SDS011;7043;51.630;7.254;2023-04-10T07:26:42;21.23;;;18.57;;
13941;SDS011;7043;51.630;7.254;2023-04-10T07:29:08;19.47;;;17.40;;
13941;SDS011;7043;51.630;7.254;2023-04-10T07:31:34;16.47;;;14.77;;
13941;SDS011;7043;51.630;7.254;2023-04-10T07:34:00;10.73;;;9.60;;
13941;SDS011;7043;51.630;7.254;2023-04-10T07:36:26;9.67;;;8.63;;
13941;SDS011;7043;51.630;7.254;2023-04-10T07:38:52;9.30;;;8.40;;
13941;SDS011;7043;51.630;7.254;2023-04-10T07:41:18;9.47;;;8.47;;
13941;SDS011;7043;51.630;7.254;2023-04-10T07:43:46;9.50;;;7.23;;
13941;SDS011;7043;51.630;7.254;2023-04-10T07:46:12;8.10;;;7.30;;
13941;SDS011;7043;51.630;7.254;2023-04-10T07:48:38;8.27;;;7.17;;
13941;SDS011;7043;51.630;7.254;2023-04-10T07:51:04;8.20;;;6.90;;
13941;SDS011;7043;51.630;7.254;2023-04-10T07:53:33;7.43;;;6.70;;
13941;SDS011;7043;51.630;7.254;2023-04-10T07:56:00;6.17;;;5.63;;
13941;SDS011;7043;51.630;7.254;2023-04-10T07:58:25;6.70;;;6.10;;
13941;SDS011;7043;51.630;7.254;2023-04-10T08:00:51;5.80;;;5.27;;
13941;SDS011;7043;51.630;7.254;2023-04-10T08:03:17;6.23;;;5.73;;
13941;SDS011;7043;51.630;7.254;2023-04-10T08:05:43;6.37;;;5.77;;
13941;SDS011;7043;51.630;7.254;2023-04-10T08:08:10;5.90;;;5.40;;
13941;SDS011;7043;51.630;7.254;2023-04-10T08:10:36;5.60;;;5.10;;
13941;SDS011;7043;51.630;7.254;2023-04-10T08:13:03;6.03;;;5.47;;
13941;SDS011;7043;51.630;7.254;2023-04-10T08:15:29;5.47;;;5.00;;
13941;SDS011;7043;51.630;7.254;2023-04-10T08:17:55;6.17;;;4.93;;
13941;SDS011;7043;51.630;7.254;2023-04-10T08:20:21;5.60;;;4.83;;
13941;SDS011;7043;51.630;7.254;2023-04-10T08:22:47;5.30;;;4.80;;
13941;SDS011;7043;51.630;7.254;2023-04-10T08:25:13;5.27;;;4.77;;
13941;SDS011;7043;51.630;7.254;2023-04-10T08:27:39;5.17;;;4.67;;
13941;SDS011;7043;51.630;7.254;2023-04-10T08:30:05;5.07;;;4.57;;
13941;SDS011;7043;51.630;7.254;2023-04-10T08:32:31;4.60;;;4.20;;
13941;SDS011;7043;51.630;7.254;2023-04-10T08:34:58;4.20;;;3.73;;
13941;SDS011;7043;51.630;7.254;2023-04-10T08:37:24;4.85;;;4.45;;
13941;SDS011;7043;51.630;7.254;2023-04-10T08:39:51;4.53;;;4.13;;
13941;SDS011;7043;51.630;7.254;2023-04-10T08:42:17;4.20;;;3.90;;
13941;SDS011;7043;51.630;7.254;2023-04-10T08:44:43;3.93;;;3.63;;
13941;SDS011;7043;51.630;7.254;2023-04-10T08:47:10;4.32;;;3.92;;
13941;SDS011;7043;51.630;7.254;2023-04-10T08:52:03;4.20;;;3.80;;
13941;SDS011;7043;51.630;7.254;2023-04-10T08:54:32;4.23;;;3.60;;
13941;SDS011;7043;51.630;7.254;2023-04-10T08:56:58;4.83;;;4.43;;
13941;SDS011;7043;51.630;7.254;2023-04-10T08:59:26;6.90;;;6.30;;
13941;SDS011;7043;51.630;7.254;2023-04-10T09:01:56;6.40;;;5.80;;
13941;SDS011;7043;51.630;7.254;2023-04-10T09:04:22;8.43;;;7.47;;
13941;SDS011;7043;51.630;7.254;2023-04-10T09:06:49;5.40;;;4.90;;
13941;SDS011;7043;51.630;7.254;2023-04-10T09:09:15;3.90;;;3.60;;
13941;SDS011;7043;51.630;7.254;2023-04-10T09:14:26;4.47;;;3.50;;
13941;SDS011;7043;51.630;7.254;2023-04-10T09:16:53;4.55;;;4.15;;
13941;SDS011;7043;51.630;7.254;2023-04-10T09:19:29;4.28;;;3.88;;
13941;SDS011;7043;51.630;7.254;2023-04-10T09:21:55;4.10;;;3.70;;
13941;SDS011;7043;51.630;7.254;2023-04-10T09:24:22;4.00;;;3.70;;
13941;SDS011;7043;51.630;7.254;2023-04-10T09:26:48;3.70;;;3.40;;
13941;SDS011;7043;51.630;7.254;2023-04-10T09:29:14;4.18;;;3.80;;
13941;SDS011;7043;51.630;7.254;2023-04-10T09:31:43;4.30;;;4.00;;
13941;SDS011;7043;51.630;7.254;2023-04-10T09:36:35;4.50;;;4.10;;
13941;SDS011;7043;51.630;7.254;2023-04-10T09:39:02;3.55;;;3.25;;
13941;SDS011;7043;51.630;7.254;2023-04-10T09:41:28;3.53;;;3.22;;
13941;SDS011;7043;51.630;7.254;2023-04-10T09:44:08;3.30;;;3.03;;
13941;SDS011;7043;51.630;7.254;2023-04-10T09:46:34;3.67;;;3.38;;
13941;SDS011;7043;51.630;7.254;2023-04-10T09:49:00;3.15;;;2.65;;
13941;SDS011;7043;51.630;7.254;2023-04-10T09:51:32;3.58;;;3.28;;
13941;SDS011;7043;51.630;7.254;2023-04-10T09:53:59;3.60;;;3.30;;
13941;SDS011;7043;51.630;7.254;2023-04-10T09:56:25;3.55;;;3.22;;
13941;SDS011;7043;51.630;7.254;2023-04-10T09:58:52;3.00;;;2.80;;
13941;SDS011;7043;51.630;7.254;2023-04-10T10:01:20;3.63;;;3.00;;
13941;SDS011;7043;51.630;7.254;2023-04-10T10:03:46;3.53;;;3.22;;
13941;SDS011;7043;51.630;7.254;2023-04-10T10:06:12;3.50;;;3.20;;
13941;SDS011;7043;51.630;7.254;2023-04-10T10:08:39;3.50;;;3.20;;
13941;SDS011;7043;51.630;7.254;2023-04-10T10:11:05;2.95;;;2.65;;
13941;SDS011;7043;51.630;7.254;2023-04-10T10:13:56;4.50;;;3.70;;
13941;SDS011;7043;51.630;7.254;2023-04-10T10:20:07;3.58;;;3.22;;
13941;SDS011;7043;51.630;7.254;2023-04-10T10:22:01;3.13;;;2.90;;
13941;SDS011;7043;51.630;7.254;2023-04-10T10:24:28;3.38;;;3.08;;
13941;SDS011;7043;51.630;7.254;2023-04-10T10:26:56;4.97;;;3.10;;
13941;SDS011;7043;51.630;7.254;2023-04-10T10:29:23;3.60;;;3.30;;
13941;SDS011;7043;51.630;7.254;2023-04-10T10:31:49;3.13;;;2.90;;
13941;SDS011;7043;51.630;7.254;2023-04-10T10:34:15;3.95;;;3.65;;
13941;SDS011;7043;51.630;7.254;2023-04-10T10:36:41;3.47;;;3.10;;
13941;SDS011;7043;51.630;7.254;2023-04-10T10:41:43;3.63;;;3.33;;
13941;SDS011;7043;51.630;7.254;2023-04-10T10:44:15;2.90;;;2.70;;
13941;SDS011;7043;51.630;7.254;2023-04-10T10:46:58;3.15;;;2.95;;
13941;SDS011;7043;51.630;7.254;2023-04-10T10:52:10;3.17;;;2.88;;
13941;SDS011;7043;51.630;7.254;2023-04-10T10:54:36;3.58;;;3.15;;
13941;SDS011;7043;51.630;7.254;2023-04-10T10:57:02;3.17;;;2.78;;
13941;SDS011;7043;51.630;7.254;2023-04-10T11:04:47;3.22;;;3.00;;
13941;SDS011;7043;51.630;7.254;2023-04-10T11:07:14;3.30;;;3.00;;
13941;SDS011;7043;51.630;7.254;2023-04-10T11:12:09;4.32;;;4.00;;
13941;SDS011;7043;51.630;7.254;2023-04-10T11:14:35;3.90;;;3.60;;
13941;SDS011;7043;51.630;7.254;2023-04-10T11:17:02;6.40;;;4.78;;
13941;SDS011;7043;51.630;7.254;2023-04-10T11:19:28;3.50;;;3.20;;
13941;SDS011;7043;51.630;7.254;2023-04-10T11:22:01;3.10;;;2.90;;
13941;SDS011;7043;51.630;7.254;2023-04-10T11:24:29;3.10;;;2.80;;
13941;SDS011;7043;51.630;7.254;2023-04-10T11:26:55;3.28;;;3.00;;
13941;SDS011;7043;51.630;7.254;2023-04-10T11:31:54;2.97;;;2.78;;
13941;SDS011;7043;51.630;7.254;2023-04-10T11:34:20;2.92;;;2.72;;
13941;SDS011;7043;51.630;7.254;2023-04-10T11:36:46;2.83;;;2.63;;
13941;SDS011;7043;51.630;7.254;2023-04-10T11:39:13;3.05;;;2.78;;
13941;SDS011;7043;51.630;7.254;2023-04-10T11:41:44;3.75;;;3.45;;
13941;SDS011;7043;51.630;7.254;2023-04-10T11:44:11;3.60;;;3.30;;
13941;SDS011;7043;51.630;7.254;2023-04-10T11:46:38;3.38;;;3.05;;
13941;SDS011;7043;51.630;7.254;2023-04-10T11:49:05;2.75;;;2.55;;
13941;SDS011;7043;51.630;7.254;2023-04-10T11:51:34;3.20;;;2.90;;
13941;SDS011;7043;51.630;7.254;2023-04-10T11:54:07;3.25;;;2.95;;
13941;SDS011;7043;51.630;7.254;2023-04-10T11:56:34;3.00;;;2.70;;
13941;SDS011;7043;51.630;7.254;2023-04-10T11:59:00;2.83;;;2.60;;
13941;SDS011;7043;51.630;7.254;2023-04-10T12:01:32;2.90;;;2.70;;
13941;SDS011;7043;51.630;7.254;2023-04-10T12:03:58;3.22;;;2.92;;
13941;SDS011;7043;51.630;7.254;2023-04-10T12:06:25;2.40;;;2.20;;
13941;SDS011;7043;51.630;7.254;2023-04-10T12:08:51;3.38;;;2.92;;
13941;SDS011;7043;51.630;7.254;2023-04-10T12:11:18;3.00;;;2.80;;
13941;SDS011;7043;51.630;7.254;2023-04-10T12:13:46;3.20;;;2.90;;
13941;SDS011;7043;51.630;7.254;2023-04-10T12:16:12;2.88;;;2.67;;
13941;SDS011;7043;51.630;7.254;2023-04-10T12:18:38;2.83;;;2.63;;
13941;SDS011;7043;51.630;7.254;2023-04-10T12:21:05;3.22;;;2.60;;
13941;SDS011;7043;51.630;7.254;2023-04-10T12:23:32;3.17;;;2.90;;
13941;SDS011;7043;51.630;7.254;2023-04-10T12:26:08;2.75;;;2.53;;
13941;SDS011;7043;51.630;7.254;2023-04-10T12:28:35;3.58;;;2.72;;
13941;SDS011;7043;51.630;7.254;2023-04-10T12:31:02;3.17;;;2.88;;
13941;SDS011;7043;51.630;7.254;2023-04-10T12:33:28;3.42;;;3.13;;
13941;SDS011;7043;51.630;7.254;2023-04-10T12:35:54;3.35;;;3.05;;
13941;SDS011;7043;51.630;7.254;2023-04-10T12:38:54;2.90;;;2.60;;
13941;SDS011;7043;51.630;7.254;2023-04-10T12:41:12;2.95;;;2.75;;
13941;SDS011;7043;51.630;7.254;2023-04-10T12:43:39;3.15;;;2.85;;
13941;SDS011;7043;51.630;7.254;2023-04-10T12:46:06;2.88;;;2.65;;
13941;SDS011;7043;51.630;7.254;2023-04-10T12:48:32;2.95;;;2.70;;
13941;SDS011;7043;51.630;7.254;2023-04-10T12:50:59;2.70;;;2.50;;
13941;SDS011;7043;51.630;7.254;2023-04-10T12:53:25;2.80;;;2.55;;
13941;SDS011;7043;51.630;7.254;2023-04-10T12:55:58;6.25;;;2.90;;
13941;SDS011;7043;51.630;7.254;2023-04-10T12:58:25;3.17;;;2.70;;
13941;SDS011;7043;51.630;7.254;2023-04-10T13:00:55;2.75;;;2.55;;
13941;SDS011;7043;51.630;7.254;2023-04-10T13:03:21;2.50;;;2.30;;
13941;SDS011;7043;51.630;7.254;2023-04-10T13:05:47;2.90;;;2.70;;
13941;SDS011;7043;51.630;7.254;2023-04-10T13:08:13;3.17;;;2.58;;
13941;SDS011;7043;51.630;7.254;2023-04-10T13:10:40;2.70;;;2.50;;
13941;SDS011;7043;51.630;7.254;2023-04-10T13:13:07;2.70;;;2.50;;
13941;SDS011;7043;51.630;7.254;2023-04-10T13:15:36;2.40;;;2.20;;
13941;SDS011;7043;51.630;7.254;2023-04-10T13:18:03;3.33;;;2.25;;
13941;SDS011;7043;51.630;7.254;2023-04-10T13:20:31;2.20;;;2.00;;
13941;SDS011;7043;51.630;7.254;2023-04-10T13:22:57;2.50;;;2.30;;
13941;SDS011;7043;51.630;7.254;2023-04-10T13:25:23;2.30;;;2.10;;
13941;SDS011;7043;51.630;7.254;2023-04-10T13:27:51;2.42;;;2.20;;
13941;SDS011;7043;51.630;7.254;2023-04-10T13:30:17;2.60;;;2.28;;
13941;SDS011;7043;51.630;7.254;2023-04-10T13:32:43;2.42;;;2.22;;
13941;SDS011;7043;51.630;7.254;2023-04-10T13:35:09;2.42;;;2.20;;
13941;SDS011;7043;51.630;7.254;2023-04-10T13:37:35;3.65;;;3.35;;
13941;SDS011;7043;51.630;7.254;2023-04-10T13:40:01;3.33;;;3.03;;
13941;SDS011;7043;51.630;7.254;2023-04-10T13:42:28;2.55;;;2.35;;
13941;SDS011;7043;51.630;7.254;2023-04-10T13:44:54;2.70;;;2.50;;
13941;SDS011;7043;51.630;7.254;2023-04-10T13:47:20;2.40;;;2.20;;
13941;SDS011;7043;51.630;7.254;2023-04-10T13:49:46;2.22;;;2.00;;
13941;SDS011;7043;51.630;7.254;2023-04-10T13:52:12;3.03;;;2.63;;
13941;SDS011;7043;51.630;7.254;2023-04-10T13:54:38;3.10;;;2.50;;
13941;SDS011;7043;51.630;7.254;2023-04-10T13:57:04;2.60;;;2.40;;
13941;SDS011;7043;51.630;7.254;2023-04-10T13:59:30;4.10;;;3.70;;
13941;SDS011;7043;51.630;7.254;2023-04-10T14:01:55;3.22;;;2.85;;
13941;SDS011;7043;51.630;7.254;2023-04-10T14:04:21;2.70;;;2.50;;
13941;SDS011;7043;51.630;7.254;2023-04-10T14:06:47;3.63;;;3.33;;
13941;SDS011;7043;51.630;7.254;2023-04-10T14:09:15;3.50;;;3.20;;
13941;SDS011;7043;51.630;7.254;2023-04-10T14:11:41;4.63;;;4.22;;
13941;SDS011;7043;51.630;7.254;2023-04-10T14:14:07;4.05;;;2.80;;
13941;SDS011;7043;51.630;7.254;2023-04-10T14:16:33;2.60;;;2.40;;
13941;SDS011;7043;51.630;7.254;2023-04-10T14:18:59;3.92;;;2.50;;
13941;SDS011;7043;51.630;7.254;2023-04-10T14:21:25;2.65;;;2.45;;
13941;SDS011;7043;51.630;7.254;2023-04-10T14:23:51;3.00;;;2.70;;
13941;SDS011;7043;51.630;7.254;2023-04-10T14:26:17;3.35;;;3.05;;
13941;SDS011;7043;51.630;7.254;2023-04-10T14:28:43;3.10;;;2.80;;
13941;SDS011;7043;51.630;7.254;2023-04-10T14:31:09;3.70;;;2.88;;
13941;SDS011;7043;51.630;7.254;2023-04-10T14:33:36;3.30;;;3.00;;
13941;SDS011;7043;51.630;7.254;2023-04-10T14:36:02;2.97;;;2.70;;
13941;SDS011;7043;51.630;7.254;2023-04-10T14:38:28;3.22;;;2.92;;
13941;SDS011;7043;51.630;7.254;2023-04-10T14:40:54;3.58;;;3.28;;
13941;SDS011;7043;51.630;7.254;2023-04-10T14:43:20;4.20;;;3.80;;
13941;SDS011;7043;51.630;7.254;2023-04-10T14:45:46;4.55;;;4.15;;
13941;SDS011;7043;51.630;7.254;2023-04-10T14:48:12;4.57;;;4.18;;
13941;SDS011;7043;51.630;7.254;2023-04-10T14:50:38;4.05;;;3.65;;
13941;SDS011;7043;51.630;7.254;2023-04-10T14:53:04;4.50;;;4.10;;
13941;SDS011;7043;51.630;7.254;2023-04-10T14:55:33;5.15;;;4.65;;
13941;SDS011;7043;51.630;7.254;2023-04-10T14:57:59;4.20;;;3.80;;
13941;SDS011;7043;51.630;7.254;2023-04-10T15:00:25;3.90;;;3.60;;
13941;SDS011;7043;51.630;7.254;2023-04-10T15:02:53;4.50;;;4.10;;
13941;SDS011;7043;51.630;7.254;2023-04-10T15:05:21;5.28;;;4.78;;
13941;SDS011;7043;51.630;7.254;2023-04-10T15:07:47;5.13;;;4.40;;
13941;SDS011;7043;51.630;7.254;2023-04-10T15:10:13;4.28;;;3.88;;
13941;SDS011;7043;51.630;7.254;2023-04-10T15:12:39;3.17;;;2.97;;
13941;SDS011;7043;51.630;7.254;2023-04-10T15:15:06;4.20;;;3.35;;
13941;SDS011;7043;51.630;7.254;2023-04-10T15:17:32;3.60;;;3.30;;
13941;SDS011;7043;51.630;7.254;2023-04-10T15:19:58;5.25;;;4.40;;
13941;SDS011;7043;51.630;7.254;2023-04-10T15:22:25;2.92;;;2.72;;